createdAt,value
2022-08-26T00:04:18.454Z,96.00
2022-08-26T00:09:23.419Z,96.58
2022-08-26T00:14:30.962Z,97.08
2022-08-26T00:19:34.109Z,96.77
2022-08-26T00:24:36.985Z,96.44
2022-08-26T00:29:41.163Z,96.72
2022-08-26T00:34:44.242Z,97.15
2022-08-26T00:39:47.107Z,97.32
2022-08-26T00:44:50.715Z,97.36
2022-08-26T00:49:54.056Z,97.64
2022-08-26T00:55:20.497Z,97.62
2022-08-26T01:00:27.865Z,97.82
2022-08-26T01:05:32.626Z,98.13
2022-08-26T01:10:35.761Z,98.45
2022-08-26T01:15:50.015Z,98.53
2022-08-26T01:21:22.485Z,98.86
2022-08-26T01:26:40.647Z,99.01
2022-08-26T01:31:49.661Z,98.79
2022-08-26T01:37:11.709Z,98.70
2022-08-26T01:42:21.379Z,98.81
2022-08-26T01:47:30.198Z,98.57
2022-08-26T01:52:38.074Z,98.13
2022-08-26T01:57:43.243Z,97.57
2022-08-26T02:02:49.974Z,97.58
2022-08-26T02:07:53.090Z,97.88
2022-08-26T02:12:56.266Z,98.21
2022-08-26T02:18:03.196Z,98.14
2022-08-26T02:23:07.139Z,97.87
2022-08-26T02:28:12.766Z,98.25
2022-08-26T02:33:15.626Z,98.45
2022-08-26T02:38:18.560Z,98.53
2022-08-26T02:43:23.858Z,98.74
2022-08-26T02:48:34.436Z,99.07
2022-08-26T02:53:39.276Z,98.96
2022-08-26T02:58:42.673Z,99.12
2022-08-26T03:03:46.619Z,99.40
2022-08-26T03:08:53.114Z,99.68
2022-08-26T03:13:55.928Z,99.92
2022-08-26T03:18:58.807Z,100.00
2022-08-26T03:24:02.142Z,100.00
2022-08-26T03:29:34.988Z,100.00
2022-08-26T03:34:37.967Z,100.00
2022-08-26T03:39:41.953Z,100.00
2022-08-26T03:44:44.751Z,100.00
2022-08-26T03:49:47.609Z,100.00
2022-08-26T03:54:51.002Z,100.00
2022-08-26T03:59:53.851Z,100.00
2022-08-26T04:04:56.943Z,100.00
2022-08-26T04:09:59.872Z,100.00
2022-08-26T04:15:09.157Z,100.00
2022-08-26T04:20:16.244Z,100.00
2022-08-26T04:25:20.624Z,100.00
2022-08-26T04:30:23.643Z,99.69
2022-08-26T04:35:28.689Z,99.17
2022-08-26T04:40:32.623Z,98.77
2022-08-26T04:45:40.646Z,98.13
2022-08-26T04:50:43.636Z,97.54
2022-08-26T04:55:46.612Z,97.12
2022-08-26T05:00:54.105Z,96.19
2022-08-26T05:05:57.415Z,95.19
2022-08-26T05:11:05.339Z,93.96
2022-08-26T05:16:11.923Z,92.66
2022-08-26T05:21:37.123Z,92.52
2022-08-26T05:26:42.541Z,92.15
2022-08-26T05:31:51.737Z,90.98
2022-08-26T05:36:59.306Z,88.15
2022-08-26T05:42:03.370Z,85.56
2022-08-26T05:47:07.776Z,82.38
2022-08-26T05:52:11.839Z,82.02
2022-08-26T05:57:15.905Z,81.01
2022-08-26T06:02:18.959Z,78.61
2022-08-26T06:07:42.430Z,76.10
2022-08-26T06:12:45.448Z,71.03
2022-08-26T06:17:48.517Z,62.66
2022-08-26T06:23:11.381Z,55.13
2022-08-26T06:28:15.482Z,51.52
2022-08-26T06:33:23.500Z,50.96
2022-08-26T06:38:26.369Z,52.05
2022-08-26T06:43:29.854Z,53.58
2022-08-26T06:48:32.923Z,53.10
2022-08-26T06:53:36.986Z,50.91
2022-08-26T06:58:42.043Z,50.40
2022-08-26T07:03:46.640Z,53.13
2022-08-26T07:08:52.602Z,53.96
2022-08-26T07:13:56.039Z,53.53
2022-08-26T07:18:59.023Z,55.20
2022-08-26T07:24:04.568Z,55.95
2022-08-26T07:29:07.446Z,55.66
2022-08-26T07:34:14.000Z,50.25
2022-08-26T07:39:17.188Z,46.42
2022-08-26T07:44:21.269Z,43.08
2022-08-26T07:49:26.737Z,40.86
2022-08-26T07:54:31.026Z,40.71
2022-08-26T07:59:34.191Z,42.11
2022-08-26T08:04:37.206Z,43.23
2022-08-26T08:09:41.548Z,44.21
2022-08-26T08:14:46.911Z,45.02
2022-08-26T08:19:51.591Z,46.10
2022-08-26T08:24:56.202Z,47.05
2022-08-26T08:30:00.491Z,48.07
2022-08-26T08:35:10.945Z,49.09
2022-08-26T08:40:18.338Z,48.61
2022-08-26T08:45:51.020Z,47.78
2022-08-26T08:51:01.698Z,47.89
2022-08-26T08:56:15.986Z,45.76
2022-08-26T09:01:26.443Z,44.79
2022-08-26T09:06:29.847Z,45.09
2022-08-26T09:11:32.956Z,45.90
2022-08-26T09:17:00.943Z,45.89
2022-08-26T09:22:08.735Z,46.67
2022-08-26T09:27:38.152Z,47.02
2022-08-26T09:32:42.151Z,46.47
2022-08-26T09:43:23.117Z,45.95
2022-08-26T09:48:36.291Z,45.12
2022-08-26T09:53:52.570Z,44.54
2022-08-26T09:58:57.332Z,44.40
2022-08-26T10:04:26.775Z,44.96
2022-08-26T10:09:37.061Z,44.81
2022-08-26T10:14:51.576Z,43.87
2022-08-26T10:20:23.457Z,43.79
2022-08-26T10:25:33.654Z,43.81
2022-08-26T10:30:47.352Z,42.94
2022-08-26T10:35:56.187Z,42.60
2022-08-26T10:41:10.400Z,42.51
2022-08-26T10:46:22.570Z,42.26
2022-08-26T10:51:42.202Z,42.22
2022-08-26T10:56:55.699Z,42.66
2022-08-26T11:02:11.804Z,42.64
2022-08-26T11:07:40.557Z,43.03
2022-08-26T11:12:49.096Z,42.44
2022-08-26T11:17:52.162Z,42.35
2022-08-26T11:23:17.523Z,41.98
2022-08-26T11:28:34.746Z,41.87
2022-08-26T11:34:03.367Z,42.54
2022-08-26T11:39:29.153Z,42.37
2022-08-26T11:44:49.343Z,43.55
2022-08-26T11:50:27.004Z,43.67
2022-08-26T11:55:32.590Z,44.42
2022-08-26T12:00:45.761Z,43.66
2022-08-26T12:05:52.571Z,43.49
2022-08-26T12:11:09.747Z,43.75
2022-08-26T12:16:13.925Z,43.94
2022-08-26T12:21:24.423Z,42.69
2022-08-26T12:26:30.992Z,41.72
2022-08-26T12:31:40.230Z,41.32
2022-08-26T12:36:55.270Z,40.71
2022-08-26T12:41:59.457Z,40.54
2022-08-26T12:47:10.976Z,41.61
2022-08-26T12:52:30.212Z,40.35
2022-08-26T12:57:37.538Z,39.98
2022-08-26T13:02:40.502Z,39.99
2022-08-26T13:07:46.088Z,40.69
2022-08-26T13:12:49.093Z,40.39
2022-08-26T13:17:52.317Z,40.08
2022-08-26T13:22:59.609Z,40.55
2022-08-26T13:28:02.802Z,40.19
2022-08-26T13:33:05.813Z,39.94
2022-08-26T13:38:18.590Z,39.70
2022-08-26T13:43:37.332Z,39.17
2022-08-26T13:48:43.305Z,37.81
2022-08-26T13:53:48.668Z,37.47
2022-08-26T13:58:51.780Z,37.06
2022-08-26T14:03:56.345Z,36.71
2022-08-26T14:08:59.654Z,37.27
2022-08-26T14:14:04.184Z,37.13
2022-08-26T14:19:09.052Z,37.51
2022-08-26T14:24:12.218Z,39.00
2022-08-26T14:29:16.789Z,39.87
2022-08-26T14:34:20.223Z,40.92
2022-08-26T14:39:23.359Z,40.61
2022-08-26T14:44:32.158Z,40.91
2022-08-26T14:49:35.195Z,41.19
2022-08-26T14:54:38.239Z,40.65
2022-08-26T14:59:45.450Z,40.97
2022-08-26T15:04:53.574Z,39.81
2022-08-26T15:09:56.591Z,39.75
2022-08-26T15:14:59.665Z,40.29
2022-08-26T15:20:04.122Z,40.70
2022-08-26T15:25:08.398Z,40.20
2022-08-26T15:30:12.922Z,39.89
2022-08-26T15:35:15.976Z,40.05
2022-08-26T15:40:22.069Z,40.54
2022-08-26T15:45:26.399Z,41.12
2022-08-26T15:50:30.017Z,41.85
2022-08-26T15:55:33.056Z,42.48
2022-08-26T16:00:37.347Z,43.06
2022-08-26T16:05:43.641Z,43.91
2022-08-26T16:10:50.599Z,44.83
2022-08-26T16:15:53.841Z,45.38
2022-08-26T16:21:13.479Z,45.81
2022-08-26T16:26:20.736Z,46.05
2022-08-26T16:31:23.893Z,46.55
2022-08-26T16:36:27.116Z,46.98
2022-08-26T16:41:31.501Z,47.66
2022-08-26T16:46:37.004Z,48.13
2022-08-26T16:51:40.578Z,48.49
2022-08-26T16:56:43.501Z,49.29
2022-08-26T17:01:46.501Z,49.77
2022-08-26T17:06:50.276Z,49.97
2022-08-26T17:11:54.436Z,50.36
2022-08-26T17:16:57.801Z,51.39
2022-08-26T17:22:00.786Z,52.18
2022-08-26T17:27:09.268Z,52.81
2022-08-26T17:32:12.874Z,54.08
2022-08-26T17:37:16.997Z,55.36
2022-08-26T17:42:19.983Z,56.68
2022-08-26T17:47:23.390Z,57.78
2022-08-26T17:52:26.246Z,58.55
2022-08-26T17:57:31.338Z,58.77
2022-08-26T18:02:38.189Z,58.68
2022-08-26T18:07:44.064Z,58.03
2022-08-26T18:12:50.922Z,57.85
2022-08-26T18:17:55.157Z,57.28
2022-08-26T18:22:59.319Z,56.97
2022-08-26T18:28:03.117Z,56.91
2022-08-26T18:33:05.988Z,56.73
2022-08-26T18:38:11.031Z,56.33
2022-08-26T18:43:16.035Z,56.35
2022-08-26T18:48:18.880Z,56.37
2022-08-26T18:53:21.787Z,56.62
2022-08-26T18:58:25.570Z,56.84
2022-08-26T19:03:28.796Z,56.51
2022-08-26T19:08:32.001Z,56.63
2022-08-26T19:13:36.541Z,57.72
2022-08-26T19:18:39.473Z,57.71
2022-08-26T19:23:42.879Z,57.81
2022-08-26T19:28:45.810Z,58.28
2022-08-26T19:33:48.818Z,58.57
2022-08-26T19:38:55.995Z,58.73
2022-08-26T19:43:59.534Z,58.81
2022-08-26T19:49:03.200Z,58.81
2022-08-26T19:54:06.529Z,59.03
2022-08-26T19:59:09.400Z,59.03
2022-08-26T20:04:12.663Z,59.26
2022-08-26T20:09:15.572Z,59.52
2022-08-26T20:14:22.960Z,59.64
2022-08-26T20:19:45.756Z,59.88
2022-08-26T20:24:49.802Z,60.23
2022-08-26T20:29:54.024Z,60.51
2022-08-26T20:34:57.368Z,60.76
2022-08-26T20:40:01.529Z,61.27
2022-08-26T20:45:06.847Z,61.76
2022-08-26T20:50:10.982Z,62.42
2022-08-26T20:55:14.338Z,63.07
2022-08-26T21:00:22.771Z,63.69
2022-08-26T21:05:29.599Z,64.46
2022-08-26T21:10:32.671Z,65.16
2022-08-26T21:15:35.819Z,65.65
2022-08-26T21:20:38.713Z,66.10
2022-08-26T21:25:42.456Z,66.25
2022-08-26T21:30:45.423Z,66.39
2022-08-26T21:35:55.593Z,66.47
2022-08-26T21:41:05.265Z,66.47
2022-08-26T21:46:14.293Z,66.64
2022-08-26T21:51:20.009Z,66.86
2022-08-26T21:56:26.467Z,67.13
2022-08-26T22:01:35.079Z,67.56
2022-08-26T22:06:45.460Z,67.93
2022-08-26T22:11:49.120Z,68.55
2022-08-26T22:16:52.259Z,68.77
2022-08-26T22:21:56.519Z,69.10
2022-08-26T22:26:59.386Z,69.35
2022-08-26T22:32:02.519Z,69.66
2022-08-26T22:37:06.651Z,69.94
2022-08-26T22:42:09.594Z,70.14
2022-08-26T22:47:13.473Z,70.40
2022-08-26T22:52:16.426Z,70.75
2022-08-26T22:57:21.214Z,71.17
2022-08-26T23:02:24.439Z,71.52
2022-08-26T23:07:27.671Z,71.87
2022-08-26T23:12:31.645Z,72.22
2022-08-26T23:17:36.089Z,72.67
2022-08-26T23:22:40.298Z,73.28
2022-08-26T23:27:43.763Z,73.71
2022-08-26T23:32:47.013Z,74.12
2022-08-26T23:37:53.453Z,74.16
2022-08-26T23:43:04.741Z,74.41
2022-08-26T23:48:08.540Z,74.57
2022-08-26T23:53:25.835Z,74.87
2022-08-26T23:58:28.769Z,75.05
